sensor_id;sensor_type;location;lat;lon;timestamp;temperature;humidity
43842;DHT22;29495;49.970;20.842;2023-07-13T00:01:12;22.90;1.00
43842;DHT22;29495;49.970;20.842;2023-07-13T00:03:38;22.90;1.00
43842;DHT22;29495;49.970;20.842;2023-07-13T00:06:07;23.00;1.00
43842;DHT22;29495;49.970;20.842;2023-07-13T00:08:33;23.00;1.00
43842;DHT22;29495;49.970;20.842;2023-07-13T00:11:03;22.90;1.00
43842;DHT22;29495;49.970;20.842;2023-07-13T00:13:30;22.90;1.00
43842;DHT22;29495;49.970;20.842;2023-07-13T00:15:56;22.80;5.50
43842;DHT22;29495;49.970;20.842;2023-07-13T00:18:23;22.80;3.70
43842;DHT22;29495;49.970;20.842;2023-07-13T00:20:49;22.90;1.30
43842;DHT22;29495;49.970;20.842;2023-07-13T00:23:14;22.80;3.90
43842;DHT22;29495;49.970;20.842;2023-07-13T00:25:40;22.80;8.80
43842;DHT22;29495;49.970;20.842;2023-07-13T00:28:06;22.80;9.90
43842;DHT22;29495;49.970;20.842;2023-07-13T00:30:32;22.80;6.90
43842;DHT22;29495;49.970;20.842;2023-07-13T00:32:58;22.80;8.10
43842;DHT22;29495;49.970;20.842;2023-07-13T00:35:27;22.80;4.60
43842;DHT22;29495;49.970;20.842;2023-07-13T00:37:55;22.90;1.00
43842;DHT22;29495;49.970;20.842;2023-07-13T00:40:23;22.90;1.00
43842;DHT22;29495;49.970;20.842;2023-07-13T00:42:51;22.90;1.00
43842;DHT22;29495;49.970;20.842;2023-07-13T00:47:43;22.90;1.00
43842;DHT22;29495;49.970;20.842;2023-07-13T00:50:10;23.00;1.00
43842;DHT22;29495;49.970;20.842;2023-07-13T00:52:38;23.00;1.00
43842;DHT22;29495;49.970;20.842;2023-07-13T00:55:06;23.00;1.00
43842;DHT22;29495;49.970;20.842;2023-07-13T00:57:33;23.00;1.00
43842;DHT22;29495;49.970;20.842;2023-07-13T00:59:59;23.00;1.00
43842;DHT22;29495;49.970;20.842;2023-07-13T01:02:26;23.00;1.00
43842;DHT22;29495;49.970;20.842;2023-07-13T01:04:55;22.80;1.00
43842;DHT22;29495;49.970;20.842;2023-07-13T01:07:21;23.00;1.00
43842;DHT22;29495;49.970;20.842;2023-07-13T01:09:48;22.80;1.00
43842;DHT22;29495;49.970;20.842;2023-07-13T01:12:14;22.50;6.90
43842;DHT22;29495;49.970;20.842;2023-07-13T01:14:39;22.50;15.30
43842;DHT22;29495;49.970;20.842;2023-07-13T01:17:08;22.60;12.10
43842;DHT22;29495;49.970;20.842;2023-07-13T01:19:36;22.50;15.70
43842;DHT22;29495;49.970;20.842;2023-07-13T01:22:04;22.60;16.10
43842;DHT22;29495;49.970;20.842;2023-07-13T01:24:35;22.70;7.30
43842;DHT22;29495;49.970;20.842;2023-07-13T01:27:02;22.40;23.40
43842;DHT22;29495;49.970;20.842;2023-07-13T01:29:29;22.40;23.40
43842;DHT22;29495;49.970;20.842;2023-07-13T01:31:55;22.50;17.40
43842;DHT22;29495;49.970;20.842;2023-07-13T01:34:21;22.40;28.00
43842;DHT22;29495;49.970;20.842;2023-07-13T01:36:47;22.50;31.40
43842;DHT22;29495;49.970;20.842;2023-07-13T01:39:13;22.40;29.30
43842;DHT22;29495;49.970;20.842;2023-07-13T01:41:41;22.30;26.80
43842;DHT22;29495;49.970;20.842;2023-07-13T01:44:07;22.20;39.50
43842;DHT22;29495;49.970;20.842;2023-07-13T01:46:32;22.10;62.80
43842;DHT22;29495;49.970;20.842;2023-07-13T01:48:58;21.90;61.80
43842;DHT22;29495;49.970;20.842;2023-07-13T01:51:24;21.90;93.30
43842;DHT22;29495;49.970;20.842;2023-07-13T01:53:53;21.90;95.40
43842;DHT22;29495;49.970;20.842;2023-07-13T01:56:25;21.80;99.90
43842;DHT22;29495;49.970;20.842;2023-07-13T01:58:57;21.60;99.90
43842;DHT22;29495;49.970;20.842;2023-07-13T02:02:22;21.70;99.90
43842;DHT22;29495;49.970;20.842;2023-07-13T02:04:59;21.60;99.90
43842;DHT22;29495;49.970;20.842;2023-07-13T02:07:25;21.40;99.90
43842;DHT22;29495;49.970;20.842;2023-07-13T02:09:51;21.40;99.90
43842;DHT22;29495;49.970;20.842;2023-07-13T02:12:17;21.30;99.90
43842;DHT22;29495;49.970;20.842;2023-07-13T02:14:43;21.40;99.90
43842;DHT22;29495;49.970;20.842;2023-07-13T02:17:09;21.40;99.90
43842;DHT22;29495;49.970;20.842;2023-07-13T02:19:36;21.30;99.90
43842;DHT22;29495;49.970;20.842;2023-07-13T02:22:02;21.40;99.90
43842;DHT22;29495;49.970;20.842;2023-07-13T02:24:30;21.40;99.90
43842;DHT22;29495;49.970;20.842;2023-07-13T02:26:57;21.40;99.90
43842;DHT22;29495;49.970;20.842;2023-07-13T02:29:23;21.30;99.90
43842;DHT22;29495;49.970;20.842;2023-07-13T02:31:51;21.30;99.90
43842;DHT22;29495;49.970;20.842;2023-07-13T02:34:17;21.20;99.90
43842;DHT22;29495;49.970;20.842;2023-07-13T02:36:43;21.10;99.90
43842;DHT22;29495;49.970;20.842;2023-07-13T02:39:09;21.10;99.90
43842;DHT22;29495;49.970;20.842;2023-07-13T02:41:37;21.10;99.90
43842;DHT22;29495;49.970;20.842;2023-07-13T02:44:02;21.10;99.90
43842;DHT22;29495;49.970;20.842;2023-07-13T02:46:30;21.10;99.90
43842;DHT22;29495;49.970;20.842;2023-07-13T02:48:56;21.20;99.90
43842;DHT22;29495;49.970;20.842;2023-07-13T02:51:22;21.10;99.90
43842;DHT22;29495;49.970;20.842;2023-07-13T02:53:48;20.90;99.90
43842;DHT22;29495;49.970;20.842;2023-07-13T02:56:14;20.80;99.90
43842;DHT22;29495;49.970;20.842;2023-07-13T02:58:40;20.90;99.90
43842;DHT22;29495;49.970;20.842;2023-07-13T03:01:09;20.90;99.90
43842;DHT22;29495;49.970;20.842;2023-07-13T03:03:35;20.90;99.90
43842;DHT22;29495;49.970;20.842;2023-07-13T03:06:02;20.90;99.90
43842;DHT22;29495;49.970;20.842;2023-07-13T03:08:35;20.90;99.90
43842;DHT22;29495;49.970;20.842;2023-07-13T03:11:02;21.00;99.90
43842;DHT22;29495;49.970;20.842;2023-07-13T03:13:31;21.00;99.90
43842;DHT22;29495;49.970;20.842;2023-07-13T03:15:58;20.90;99.90
43842;DHT22;29495;49.970;20.842;2023-07-13T03:18:25;20.80;99.90
43842;DHT22;29495;49.970;20.842;2023-07-13T03:20:51;20.90;99.90
43842;DHT22;29495;49.970;20.842;2023-07-13T03:23:18;21.00;99.90
43842;DHT22;29495;49.970;20.842;2023-07-13T03:25:45;21.10;99.90
43842;DHT22;29495;49.970;20.842;2023-07-13T03:28:11;21.20;99.90
43842;DHT22;29495;49.970;20.842;2023-07-13T03:30:38;21.10;99.90
43842;DHT22;29495;49.970;20.842;2023-07-13T03:33:04;21.10;99.90
43842;DHT22;29495;49.970;20.842;2023-07-13T03:35:30;21.20;99.90
43842;DHT22;29495;49.970;20.842;2023-07-13T03:38:03;21.20;99.90
43842;DHT22;29495;49.970;20.842;2023-07-13T03:40:32;21.20;99.90
43842;DHT22;29495;49.970;20.842;2023-07-13T03:43:02;21.10;99.90
43842;DHT22;29495;49.970;20.842;2023-07-13T03:45:31;21.30;99.90
43842;DHT22;29495;49.970;20.842;2023-07-13T03:48:02;21.40;99.90
43842;DHT22;29495;49.970;20.842;2023-07-13T03:50:28;21.30;99.90
43842;DHT22;29495;49.970;20.842;2023-07-13T03:52:56;21.30;99.90
43842;DHT22;29495;49.970;20.842;2023-07-13T03:55:22;21.20;99.90
43842;DHT22;29495;49.970;20.842;2023-07-13T03:57:53;21.20;99.90
43842;DHT22;29495;49.970;20.842;2023-07-13T04:00:20;21.20;99.90
43842;DHT22;29495;49.970;20.842;2023-07-13T04:02:46;21.30;99.90
43842;DHT22;29495;49.970;20.842;2023-07-13T04:05:16;21.30;99.90
43842;DHT22;29495;49.970;20.842;2023-07-13T04:07:45;21.40;99.90
43842;DHT22;29495;49.970;20.842;2023-07-13T04:10:14;21.40;99.90
43842;DHT22;29495;49.970;20.842;2023-07-13T04:12:40;21.50;99.90
43842;DHT22;29495;49.970;20.842;2023-07-13T04:15:06;21.70;99.90
43842;DHT22;29495;49.970;20.842;2023-07-13T04:17:32;21.70;99.90
43842;DHT22;29495;49.970;20.842;2023-07-13T04:19:58;21.80;99.90
43842;DHT22;29495;49.970;20.842;2023-07-13T04:22:24;21.90;99.90
43842;DHT22;29495;49.970;20.842;2023-07-13T04:24:55;21.90;99.90
43842;DHT22;29495;49.970;20.842;2023-07-13T04:27:26;21.90;99.90
43842;DHT22;29495;49.970;20.842;2023-07-13T04:29:57;22.10;99.90
43842;DHT22;29495;49.970;20.842;2023-07-13T04:32:23;22.10;99.90
43842;DHT22;29495;49.970;20.842;2023-07-13T04:34:49;22.10;99.90
43842;DHT22;29495;49.970;20.842;2023-07-13T04:37:26;22.20;99.90
43842;DHT22;29495;49.970;20.842;2023-07-13T04:39:52;22.20;99.90
43842;DHT22;29495;49.970;20.842;2023-07-13T04:42:21;22.40;99.90
43842;DHT22;29495;49.970;20.842;2023-07-13T04:44:51;22.30;99.90
43842;DHT22;29495;49.970;20.842;2023-07-13T04:47:17;22.30;99.90
43842;DHT22;29495;49.970;20.842;2023-07-13T04:49:44;22.30;99.90
43842;DHT22;29495;49.970;20.842;2023-07-13T04:52:11;22.50;99.90
43842;DHT22;29495;49.970;20.842;2023-07-13T04:54:40;22.60;99.90
43842;DHT22;29495;49.970;20.842;2023-07-13T04:57:06;22.80;99.90
43842;DHT22;29495;49.970;20.842;2023-07-13T04:59:33;23.00;99.90
43842;DHT22;29495;49.970;20.842;2023-07-13T05:02:01;23.10;99.90
43842;DHT22;29495;49.970;20.842;2023-07-13T05:04:29;23.20;99.90
43842;DHT22;29495;49.970;20.842;2023-07-13T05:06:57;23.20;99.90
43842;DHT22;29495;49.970;20.842;2023-07-13T05:09:33;23.30;99.90
43842;DHT22;29495;49.970;20.842;2023-07-13T05:12:04;23.50;99.90
43842;DHT22;29495;49.970;20.842;2023-07-13T05:14:33;23.50;99.90
43842;DHT22;29495;49.970;20.842;2023-07-13T05:17:01;23.60;99.90
43842;DHT22;29495;49.970;20.842;2023-07-13T05:19:32;23.50;99.90
43842;DHT22;29495;49.970;20.842;2023-07-13T05:22:04;23.60;99.90
43842;DHT22;29495;49.970;20.842;2023-07-13T05:24:30;23.60;99.90
43842;DHT22;29495;49.970;20.842;2023-07-13T05:26:56;23.70;99.90
43842;DHT22;29495;49.970;20.842;2023-07-13T05:29:22;24.00;99.90
43842;DHT22;29495;49.970;20.842;2023-07-13T05:31:48;24.80;99.90
43842;DHT22;29495;49.970;20.842;2023-07-13T05:34:15;26.00;99.90
43842;DHT22;29495;49.970;20.842;2023-07-13T16:58:19;20.80;99.90
43842;DHT22;29495;49.970;20.842;2023-07-13T17:00:47;20.70;99.90
43842;DHT22;29495;49.970;20.842;2023-07-13T17:03:13;20.70;99.90
43842;DHT22;29495;49.970;20.842;2023-07-13T17:05:40;20.70;99.90
43842;DHT22;29495;49.970;20.842;2023-07-13T17:08:12;20.80;99.90
43842;DHT22;29495;49.970;20.842;2023-07-13T17:10:39;20.80;99.90
43842;DHT22;29495;49.970;20.842;2023-07-13T17:13:11;20.90;99.90
43842;DHT22;29495;49.970;20.842;2023-07-13T17:15:38;20.90;99.90
43842;DHT22;29495;49.970;20.842;2023-07-13T17:18:08;21.00;99.90
43842;DHT22;29495;49.970;20.842;2023-07-13T17:20:41;20.90;99.90
43842;DHT22;29495;49.970;20.842;2023-07-13T17:23:15;20.80;99.90
43842;DHT22;29495;49.970;20.842;2023-07-13T17:25:41;20.80;99.90
43842;DHT22;29495;49.970;20.842;2023-07-13T17:28:10;20.70;99.90
43842;DHT22;29495;49.970;20.842;2023-07-13T17:30:40;20.70;99.90
43842;DHT22;29495;49.970;20.842;2023-07-13T17:33:09;20.60;99.90
43842;DHT22;29495;49.970;20.842;2023-07-13T17:35:43;20.60;99.90
43842;DHT22;29495;49.970;20.842;2023-07-13T17:38:10;20.70;99.90
43842;DHT22;29495;49.970;20.842;2023-07-13T17:40:37;20.70;99.90
43842;DHT22;29495;49.970;20.842;2023-07-13T17:43:04;20.70;99.90
43842;DHT22;29495;49.970;20.842;2023-07-13T17:45:31;20.60;99.90
43842;DHT22;29495;49.970;20.842;2023-07-13T17:47:58;20.70;99.90
43842;DHT22;29495;49.970;20.842;2023-07-13T17:50:30;20.70;99.90
43842;DHT22;29495;49.970;20.842;2023-07-13T17:53:12;20.70;99.90
43842;DHT22;29495;49.970;20.842;2023-07-13T17:55:38;20.80;99.90
43842;DHT22;29495;49.970;20.842;2023-07-13T17:58:05;20.90;99.90
43842;DHT22;29495;49.970;20.842;2023-07-13T18:00:32;21.00;99.90
43842;DHT22;29495;49.970;20.842;2023-07-13T18:03:09;21.00;99.90
43842;DHT22;29495;49.970;20.842;2023-07-13T18:05:36;21.00;99.90
43842;DHT22;29495;49.970;20.842;2023-07-13T18:08:03;21.00;99.90
43842;DHT22;29495;49.970;20.842;2023-07-13T18:10:31;21.00;99.90
43842;DHT22;29495;49.970;20.842;2023-07-13T18:12:58;20.90;99.90
43842;DHT22;29495;49.970;20.842;2023-07-13T18:15:27;20.90;99.90
43842;DHT22;29495;49.970;20.842;2023-07-13T18:17:54;20.80;99.90
43842;DHT22;29495;49.970;20.842;2023-07-13T18:20:20;20.80;99.90
43842;DHT22;29495;49.970;20.842;2023-07-13T18:22:50;20.70;99.90
43842;DHT22;29495;49.970;20.842;2023-07-13T18:25:20;20.60;99.90
43842;DHT22;29495;49.970;20.842;2023-07-13T18:27:47;20.60;99.90
43842;DHT22;29495;49.970;20.842;2023-07-13T18:30:14;20.40;99.90
43842;DHT22;29495;49.970;20.842;2023-07-13T18:32:43;20.30;99.90
43842;DHT22;29495;49.970;20.842;2023-07-13T18:35:12;20.40;99.90
43842;DHT22;29495;49.970;20.842;2023-07-13T18:37:38;20.30;99.90
43842;DHT22;29495;49.970;20.842;2023-07-13T18:40:05;20.30;99.90
43842;DHT22;29495;49.970;20.842;2023-07-13T18:42:33;20.20;99.90
43842;DHT22;29495;49.970;20.842;2023-07-13T18:45:00;20.10;99.90
43842;DHT22;29495;49.970;20.842;2023-07-13T18:47:26;19.80;99.90
43842;DHT22;29495;49.970;20.842;2023-07-13T18:49:58;19.60;99.90
43842;DHT22;29495;49.970;20.842;2023-07-13T18:52:24;19.70;99.90
43842;DHT22;29495;49.970;20.842;2023-07-13T18:54:50;19.70;99.90
43842;DHT22;29495;49.970;20.842;2023-07-13T18:57:17;19.50;99.90
43842;DHT22;29495;49.970;20.842;2023-07-13T18:59:43;19.30;99.90
43842;DHT22;29495;49.970;20.842;2023-07-13T19:02:12;19.30;99.90
43842;DHT22;29495;49.970;20.842;2023-07-13T19:04:38;19.40;99.90
43842;DHT22;29495;49.970;20.842;2023-07-13T19:07:07;19.40;99.90
43842;DHT22;29495;49.970;20.842;2023-07-13T19:09:33;19.40;99.90
43842;DHT22;29495;49.970;20.842;2023-07-13T19:11:59;19.30;99.90
43842;DHT22;29495;49.970;20.842;2023-07-13T19:14:25;19.40;99.90
43842;DHT22;29495;49.970;20.842;2023-07-13T19:16:52;19.40;99.90
43842;DHT22;29495;49.970;20.842;2023-07-13T19:19:19;19.40;99.90
43842;DHT22;29495;49.970;20.842;2023-07-13T19:21:47;19.40;99.90
43842;DHT22;29495;49.970;20.842;2023-07-13T19:24:23;19.50;99.90
43842;DHT22;29495;49.970;20.842;2023-07-13T19:26:51;19.40;99.90
43842;DHT22;29495;49.970;20.842;2023-07-13T19:35:15;19.20;99.90
43842;DHT22;29495;49.970;20.842;2023-07-13T19:37:42;19.10;99.90
43842;DHT22;29495;49.970;20.842;2023-07-13T19:40:17;19.00;99.90
43842;DHT22;29495;49.970;20.842;2023-07-13T19:42:45;18.90;99.90
43842;DHT22;29495;49.970;20.842;2023-07-13T19:45:17;18.80;99.90
43842;DHT22;29495;49.970;20.842;2023-07-13T19:47:48;18.80;99.90
43842;DHT22;29495;49.970;20.842;2023-07-13T19:50:18;18.60;99.90
43842;DHT22;29495;49.970;20.842;2023-07-13T19:52:49;18.50;99.90
43842;DHT22;29495;49.970;20.842;2023-07-13T19:55:17;18.50;99.90
43842;DHT22;29495;49.970;20.842;2023-07-13T19:57:44;18.40;99.90
43842;DHT22;29495;49.970;20.842;2023-07-13T20:00:21;18.40;99.90
43842;DHT22;29495;49.970;20.842;2023-07-13T20:02:48;18.40;99.90
43842;DHT22;29495;49.970;20.842;2023-07-13T20:05:15;18.40;99.90
43842;DHT22;29495;49.970;20.842;2023-07-13T20:07:42;18.40;99.90
43842;DHT22;29495;49.970;20.842;2023-07-13T20:10:15;18.40;99.90
43842;DHT22;29495;49.970;20.842;2023-07-13T20:12:41;18.40;99.90
43842;DHT22;29495;49.970;20.842;2023-07-13T20:15:12;18.40;99.90
43842;DHT22;29495;49.970;20.842;2023-07-13T20:17:38;18.40;99.90
43842;DHT22;29495;49.970;20.842;2023-07-13T20:20:20;18.50;99.90
43842;DHT22;29495;49.970;20.842;2023-07-13T20:22:48;18.50;99.90
43842;DHT22;29495;49.970;20.842;2023-07-13T20:25:19;18.60;99.90
43842;DHT22;29495;49.970;20.842;2023-07-13T20:27:46;18.60;99.90
43842;DHT22;29495;49.970;20.842;2023-07-13T20:30:12;18.60;99.90
43842;DHT22;29495;49.970;20.842;2023-07-13T20:32:38;18.60;99.90
43842;DHT22;29495;49.970;20.842;2023-07-13T20:35:08;18.50;99.90
43842;DHT22;29495;49.970;20.842;2023-07-13T20:37:42;18.70;99.90
43842;DHT22;29495;49.970;20.842;2023-07-13T20:40:14;18.70;99.90
43842;DHT22;29495;49.970;20.842;2023-07-13T20:42:41;18.60;99.90
43842;DHT22;29495;49.970;20.842;2023-07-13T20:45:07;18.60;99.90
43842;DHT22;29495;49.970;20.842;2023-07-13T20:47:35;18.50;99.90
43842;DHT22;29495;49.970;20.842;2023-07-13T20:50:02;18.40;99.90
43842;DHT22;29495;49.970;20.842;2023-07-13T20:52:28;18.40;99.90
43842;DHT22;29495;49.970;20.842;2023-07-13T20:54:54;18.40;99.90
43842;DHT22;29495;49.970;20.842;2023-07-13T20:57:20;18.20;99.90
43842;DHT22;29495;49.970;20.842;2023-07-13T20:59:51;18.10;99.90
43842;DHT22;29495;49.970;20.842;2023-07-13T21:04:47;18.30;99.90
43842;DHT22;29495;49.970;20.842;2023-07-13T21:07:20;18.30;99.90
43842;DHT22;29495;49.970;20.842;2023-07-13T21:09:46;18.50;99.90
43842;DHT22;29495;49.970;20.842;2023-07-13T21:12:13;18.40;99.90
43842;DHT22;29495;49.970;20.842;2023-07-13T21:14:39;18.50;99.90
43842;DHT22;29495;49.970;20.842;2023-07-13T21:17:08;18.60;99.90
43842;DHT22;29495;49.970;20.842;2023-07-13T21:19:34;18.50;99.90
43842;DHT22;29495;49.970;20.842;2023-07-13T21:22:00;18.70;99.90
43842;DHT22;29495;49.970;20.842;2023-07-13T21:24:26;18.80;99.90
43842;DHT22;29495;49.970;20.842;2023-07-13T21:26:57;18.70;99.90
43842;DHT22;29495;49.970;20.842;2023-07-13T21:29:27;18.70;99.90
43842;DHT22;29495;49.970;20.842;2023-07-13T21:31:58;18.80;99.90
43842;DHT22;29495;49.970;20.842;2023-07-13T21:34:24;18.80;99.90
43842;DHT22;29495;49.970;20.842;2023-07-13T21:36:50;18.80;99.90
43842;DHT22;29495;49.970;20.842;2023-07-13T21:39:18;18.70;99.90
43842;DHT22;29495;49.970;20.842;2023-07-13T21:42:02;18.50;99.90
43842;DHT22;29495;49.970;20.842;2023-07-13T21:44:33;18.50;99.90
43842;DHT22;29495;49.970;20.842;2023-07-13T21:47:07;18.50;99.90
43842;DHT22;29495;49.970;20.842;2023-07-13T21:49:36;18.60;99.90
43842;DHT22;29495;49.970;20.842;2023-07-13T21:52:41;18.50;99.90
43842;DHT22;29495;49.970;20.842;2023-07-13T21:55:00;18.60;99.90
43842;DHT22;29495;49.970;20.842;2023-07-13T21:57:26;18.70;99.90
43842;DHT22;29495;49.970;20.842;2023-07-13T21:59:54;18.70;99.90
43842;DHT22;29495;49.970;20.842;2023-07-13T22:02:20;18.60;99.90
43842;DHT22;29495;49.970;20.842;2023-07-13T22:04:46;18.50;99.90
43842;DHT22;29495;49.970;20.842;2023-07-13T22:07:12;18.50;99.90
43842;DHT22;29495;49.970;20.842;2023-07-13T22:09:38;18.60;99.90
43842;DHT22;29495;49.970;20.842;2023-07-13T22:12:04;18.40;99.90
43842;DHT22;29495;49.970;20.842;2023-07-13T22:14:33;18.20;99.90
43842;DHT22;29495;49.970;20.842;2023-07-13T22:17:01;18.10;99.90
43842;DHT22;29495;49.970;20.842;2023-07-13T22:20:01;18.20;99.90
43842;DHT22;29495;49.970;20.842;2023-07-13T22:22:28;18.20;99.90
43842;DHT22;29495;49.970;20.842;2023-07-13T22:24:54;18.10;99.90
43842;DHT22;29495;49.970;20.842;2023-07-13T22:27:19;17.90;99.90
43842;DHT22;29495;49.970;20.842;2023-07-13T22:29:46;18.00;99.90
43842;DHT22;29495;49.970;20.842;2023-07-13T22:32:11;17.90;99.90
43842;DHT22;29495;49.970;20.842;2023-07-13T22:34:37;18.00;99.90
43842;DHT22;29495;49.970;20.842;2023-07-13T22:37:04;17.90;99.90
43842;DHT22;29495;49.970;20.842;2023-07-13T22:39:31;17.90;99.90
43842;DHT22;29495;49.970;20.842;2023-07-13T22:41:57;17.90;99.90
43842;DHT22;29495;49.970;20.842;2023-07-13T22:44:23;18.00;99.90
43842;DHT22;29495;49.970;20.842;2023-07-13T22:46:50;18.20;99.90
43842;DHT22;29495;49.970;20.842;2023-07-13T22:49:21;18.20;99.90
43842;DHT22;29495;49.970;20.842;2023-07-13T22:51:50;18.10;99.90
